createdAt,value
2018-04-28T00:01:40.292Z,2.37
2018-04-28T00:04:12.056Z,2.20
2018-04-28T00:06:44.266Z,2.83
2018-04-28T00:09:16.485Z,2.50
2018-04-28T00:11:48.112Z,2.40
2018-04-28T00:14:21.055Z,2.30
2018-04-28T00:16:53.546Z,2.20
2018-04-28T00:19:28.462Z,2.20
2018-04-28T00:22:01.022Z,2.30
2018-04-28T00:24:36.497Z,2.30
2018-04-28T00:30:53.312Z,2.50
2018-04-28T00:33:34.825Z,2.47
2018-04-28T00:37:07.582Z,2.10
2018-04-28T00:39:46.466Z,2.33
2018-04-28T00:42:18.723Z,2.50
2018-04-28T00:44:52.126Z,2.67
2018-04-28T00:47:25.570Z,2.10
2018-04-28T00:53:12.497Z,2.40
2018-04-28T00:58:18.514Z,2.60
2018-04-28T01:00:55.566Z,2.60
2018-04-28T01:03:31.364Z,2.27
2018-04-28T01:06:02.563Z,2.73
2018-04-28T01:08:34.441Z,2.22
2018-04-28T01:11:06.505Z,2.40
2018-04-28T01:13:47.463Z,2.30
2018-04-28T01:16:18.969Z,2.20
2018-04-28T01:18:57.485Z,2.40
2018-04-28T01:21:47.827Z,2.40
2018-04-28T01:24:36.516Z,2.43
2018-04-28T01:27:15.932Z,2.53
2018-04-28T01:33:07.793Z,2.40
2018-04-28T01:39:04.199Z,2.60
2018-04-28T01:41:43.707Z,2.50
2018-04-28T01:45:55.604Z,2.80
2018-04-28T01:48:31.355Z,2.80
2018-04-28T01:51:08.570Z,2.47
2018-04-28T01:59:04.122Z,2.93
2018-04-28T02:01:41.584Z,2.80
2018-04-28T02:04:24.669Z,3.03
2018-04-28T02:07:06.978Z,2.83
2018-04-28T02:09:44.327Z,3.00
2018-04-28T02:12:25.588Z,3.00
2018-04-28T02:15:15.316Z,2.67
2018-04-28T02:17:53.952Z,2.73
2018-04-28T02:20:28.460Z,2.80
2018-04-28T02:23:11.522Z,2.77
2018-04-28T02:26:02.309Z,2.80
2018-04-28T02:28:49.596Z,3.17
2018-04-28T02:34:34.379Z,3.00
2018-04-28T02:37:13.145Z,2.87
2018-04-28T02:39:46.600Z,2.80
2018-04-28T02:42:37.787Z,2.80
2018-04-28T02:45:13.268Z,2.70
2018-04-28T02:47:46.629Z,3.03
2018-04-28T02:50:26.352Z,3.07
2018-04-28T02:53:04.014Z,2.70
2018-04-28T02:55:46.395Z,2.80
2018-04-28T02:58:21.150Z,3.25
2018-04-28T03:04:02.475Z,2.70
2018-04-28T03:06:57.612Z,2.92
2018-04-28T03:09:33.019Z,2.60
2018-04-28T03:12:08.714Z,2.90
2018-04-28T03:15:02.600Z,3.00
2018-04-28T03:17:42.234Z,2.87
2018-04-28T03:20:24.278Z,4.05
2018-04-28T03:23:01.630Z,3.60
2018-04-28T03:28:44.524Z,3.23
2018-04-28T03:31:30.556Z,3.00
2018-04-28T03:38:44.371Z,3.20
2018-04-28T03:43:07.091Z,2.97
2018-04-28T03:45:40.469Z,4.30
2018-04-28T03:48:19.625Z,3.20
2018-04-28T03:50:56.306Z,3.20
2018-04-28T03:53:29.509Z,2.50
2018-04-28T03:56:05.071Z,2.80
2018-04-28T04:01:49.000Z,3.10
2018-04-28T04:04:27.038Z,2.90
2018-04-28T04:07:18.749Z,2.97
2018-04-28T04:12:20.802Z,2.90
2018-04-28T04:15:16.050Z,2.90
2018-04-28T04:17:59.120Z,3.13
2018-04-28T04:20:35.047Z,3.20
2018-04-28T04:23:20.542Z,2.97
2018-04-28T04:26:01.605Z,3.00
2018-04-28T04:31:57.501Z,2.57
2018-04-28T04:37:57.631Z,2.70
2018-04-28T04:40:58.546Z,2.90
2018-04-28T04:46:49.726Z,3.03
2018-04-28T04:53:00.681Z,2.80
2018-04-28T04:58:46.778Z,3.20
2018-04-28T05:01:46.042Z,3.15
2018-04-28T05:07:43.961Z,3.60
2018-04-28T05:10:41.671Z,2.80
2018-04-28T05:16:44.327Z,2.95
2018-04-28T05:19:33.503Z,3.23
2018-04-28T05:28:42.711Z,2.62
2018-04-28T05:34:33.532Z,2.70
2018-04-28T05:37:17.902Z,2.60
2018-04-28T05:43:24.519Z,2.65
2018-04-28T05:46:08.628Z,2.57
2018-04-28T05:48:52.433Z,2.95
2018-04-28T05:51:36.849Z,2.72
2018-04-28T05:57:55.840Z,2.67
2018-04-28T06:03:52.593Z,2.67
2018-04-28T06:06:32.077Z,2.92
2018-04-28T06:09:25.423Z,3.20
2018-04-28T06:18:33.886Z,2.57
2018-04-28T06:21:06.904Z,3.07
2018-04-28T06:23:40.363Z,3.20
2018-04-28T06:26:13.974Z,3.00
2018-04-28T06:28:47.207Z,3.00
2018-04-28T06:31:20.636Z,3.00
2018-04-28T06:33:54.172Z,3.00
2018-04-28T06:36:27.180Z,3.20
2018-04-28T06:39:00.387Z,3.10
2018-04-28T06:41:33.521Z,3.73
2018-04-28T06:44:06.750Z,4.10
2018-04-28T06:46:40.503Z,3.90
2018-04-28T06:49:13.653Z,4.40
2018-04-28T06:51:46.591Z,3.70
2018-04-28T06:54:19.941Z,3.90
2018-04-28T06:56:52.616Z,4.10
2018-04-28T06:59:25.440Z,4.00
2018-04-28T07:01:58.237Z,4.20
2018-04-28T07:04:31.319Z,4.25
2018-04-28T07:07:04.397Z,3.70
2018-04-28T07:09:37.464Z,3.70
2018-04-28T07:12:10.579Z,4.53
2018-04-28T07:14:43.673Z,4.20
2018-04-28T07:17:16.317Z,3.50
2018-04-28T07:19:49.460Z,4.07
2018-04-28T07:23:38.239Z,3.40
2018-04-28T07:26:10.931Z,3.00
2018-04-28T07:28:43.977Z,3.00
2018-04-28T07:31:17.378Z,3.50
2018-04-28T07:33:50.536Z,3.57
2018-04-28T07:36:23.530Z,3.60
2018-04-28T07:38:56.547Z,3.45
2018-04-28T07:41:29.422Z,3.53
2018-04-28T07:44:01.848Z,3.27
2018-04-28T07:46:34.923Z,3.67
2018-04-28T07:49:07.986Z,3.50
2018-04-28T07:51:40.927Z,3.50
2018-04-28T07:54:13.666Z,3.43
2018-04-28T07:56:46.529Z,3.55
2018-04-28T07:59:20.519Z,3.42
2018-04-28T08:01:53.559Z,3.60
2018-04-28T08:04:27.417Z,3.33
2018-04-28T08:07:00.372Z,3.30
2018-04-28T08:09:33.721Z,3.23
2018-04-28T08:12:07.161Z,3.22
2018-04-28T08:14:40.419Z,3.43
2018-04-28T08:19:19.117Z,3.60
2018-04-28T08:21:52.537Z,3.50
2018-04-28T08:24:25.476Z,3.20
2018-04-28T08:26:58.534Z,3.13
2018-04-28T08:29:31.459Z,3.40
2018-04-28T08:32:04.508Z,3.50
2018-04-28T08:34:37.110Z,3.30
2018-04-28T08:37:10.532Z,3.27
2018-04-28T08:39:43.707Z,3.33
2018-04-28T08:42:16.604Z,3.60
2018-04-28T08:44:49.554Z,3.40
2018-04-28T08:47:22.748Z,3.60
2018-04-28T08:49:55.166Z,3.47
2018-04-28T08:52:27.877Z,3.33
2018-04-28T08:55:01.448Z,3.30
2018-04-28T08:57:34.413Z,3.20
2018-04-28T09:00:17.750Z,3.13
2018-04-28T09:02:50.345Z,2.90
2018-04-28T09:05:23.253Z,2.95
2018-04-28T09:07:56.321Z,3.28
2018-04-28T09:10:29.713Z,3.42
2018-04-28T09:13:02.706Z,3.20
2018-04-28T09:15:36.413Z,3.40
2018-04-28T09:18:09.068Z,3.10
2018-04-28T09:20:41.833Z,3.50
2018-04-28T09:23:16.698Z,3.20
2018-04-28T09:25:49.880Z,3.80
2018-04-28T09:28:23.417Z,2.90
2018-04-28T09:30:56.330Z,3.30
2018-04-28T09:33:29.402Z,3.03
2018-04-28T09:36:02.554Z,3.20
2018-04-28T09:38:35.509Z,3.20
2018-04-28T09:43:40.444Z,3.45
2018-04-28T09:46:13.454Z,3.10
2018-04-28T09:48:45.922Z,3.13
2018-04-28T09:51:18.935Z,3.10
2018-04-28T09:53:51.537Z,3.27
2018-04-28T09:56:24.815Z,2.92
2018-04-28T09:58:58.692Z,3.00
2018-04-28T10:01:46.294Z,2.93
2018-04-28T10:04:24.401Z,3.20
2018-04-28T10:06:57.225Z,3.23
2018-04-28T10:09:29.977Z,2.90
2018-04-28T10:12:03.182Z,3.00
2018-04-28T10:14:36.515Z,3.40
2018-04-28T10:17:09.392Z,3.20
2018-04-28T10:19:43.578Z,3.20
2018-04-28T10:22:17.886Z,2.92
2018-04-28T10:24:51.536Z,3.67
2018-04-28T10:27:24.517Z,3.50
2018-04-28T10:29:57.721Z,3.42
2018-04-28T10:32:30.906Z,3.03
2018-04-28T10:35:03.899Z,2.90
2018-04-28T10:37:36.948Z,2.90
2018-04-28T10:40:10.370Z,3.37
2018-04-28T10:42:43.231Z,3.20
2018-04-28T10:45:16.389Z,3.50
2018-04-28T10:47:50.057Z,3.65
2018-04-28T10:50:23.061Z,3.43
2018-04-28T10:52:55.652Z,3.33
2018-04-28T10:57:27.244Z,3.10
2018-04-28T10:59:59.413Z,3.30
2018-04-28T11:02:32.401Z,3.17
2018-04-28T11:05:05.381Z,3.10
2018-04-28T11:07:38.248Z,3.00
2018-04-28T11:10:11.211Z,3.73
2018-04-28T11:12:44.100Z,3.13
2018-04-28T11:15:16.915Z,3.27
2018-04-28T11:17:49.941Z,3.30
2018-04-28T11:20:23.192Z,3.33
2018-04-28T11:22:55.668Z,3.30
2018-04-28T11:25:28.426Z,3.50
2018-04-28T11:28:00.917Z,3.83
2018-04-28T11:30:34.055Z,3.30
2018-04-28T11:33:07.579Z,3.73
2018-04-28T11:35:40.393Z,3.17
2018-04-28T11:38:13.421Z,3.12
2018-04-28T11:40:46.385Z,3.30
2018-04-28T11:43:19.406Z,3.03
2018-04-28T11:45:52.524Z,3.20
2018-04-28T11:48:25.430Z,2.95
2018-04-28T11:50:58.379Z,3.13
2018-04-28T11:53:31.357Z,3.40
2018-04-28T11:56:04.450Z,3.27
2018-04-28T11:58:36.924Z,2.90
2018-04-28T12:01:10.641Z,3.20
2018-04-28T12:03:44.291Z,3.27
2018-04-28T12:06:17.506Z,3.30
2018-04-28T12:08:50.661Z,2.90
2018-04-28T12:11:24.308Z,3.13
2018-04-28T12:13:57.293Z,3.13
2018-04-28T12:16:30.983Z,3.30
2018-04-28T12:19:04.095Z,3.40
2018-04-28T12:21:37.319Z,2.90
2018-04-28T12:24:11.069Z,3.03
2018-04-28T12:26:43.457Z,3.10
2018-04-28T12:29:16.029Z,2.80
2018-04-28T12:31:49.389Z,3.05
2018-04-28T12:34:22.579Z,3.10
2018-04-28T12:36:55.633Z,3.30
2018-04-28T12:39:28.749Z,2.63
2018-04-28T12:42:01.397Z,2.90
2018-04-28T12:44:34.397Z,2.70
2018-04-28T12:47:07.429Z,2.85
2018-04-28T12:49:39.928Z,2.87
2018-04-28T12:52:13.091Z,3.03
2018-04-28T12:54:46.074Z,3.05
2018-04-28T12:57:19.097Z,2.83
2018-04-28T12:59:52.296Z,2.90
2018-04-28T13:02:24.624Z,3.00
2018-04-28T13:04:58.798Z,2.85
2018-04-28T13:07:31.431Z,3.10
2018-04-28T13:10:04.022Z,3.07
2018-04-28T13:12:37.455Z,3.00
2018-04-28T13:15:10.053Z,3.27
2018-04-28T13:17:43.746Z,3.07
2018-04-28T13:20:16.781Z,2.80
2018-04-28T13:23:28.516Z,3.20
2018-04-28T13:26:01.102Z,3.03
2018-04-28T13:28:34.457Z,3.20
2018-04-28T13:31:07.806Z,3.00
2018-04-28T13:33:40.558Z,3.40
2018-04-28T13:36:13.659Z,3.10
2018-04-28T13:38:46.599Z,3.27
2018-04-28T13:41:19.606Z,3.20
2018-04-28T13:43:52.544Z,3.00
2018-04-28T13:46:25.414Z,3.22
2018-04-28T13:48:57.930Z,3.33
2018-04-28T13:51:31.409Z,3.40
2018-04-28T13:54:04.514Z,2.87
2018-04-28T13:56:38.545Z,3.30
2018-04-28T13:59:11.658Z,3.57
2018-04-28T14:01:44.071Z,3.20
2018-04-28T14:04:17.503Z,3.10
2018-04-28T14:06:51.511Z,3.10
2018-04-28T14:09:25.399Z,2.90
2018-04-28T14:11:58.513Z,3.00
2018-04-28T14:14:31.544Z,3.50
2018-04-28T14:17:04.242Z,2.97
2018-04-28T14:19:37.393Z,3.10
2018-04-28T14:22:10.503Z,2.87
2018-04-28T14:24:43.641Z,2.70
2018-04-28T14:27:16.838Z,2.90
2018-04-28T14:29:49.419Z,2.70
2018-04-28T14:32:22.408Z,2.78
2018-04-28T14:34:55.031Z,3.40
2018-04-28T14:37:28.584Z,3.05
2018-04-28T14:40:01.442Z,2.85
2018-04-28T14:42:41.917Z,3.13
2018-04-28T14:45:15.517Z,2.90
2018-04-28T14:47:48.381Z,3.40
2018-04-28T14:50:21.204Z,2.80
2018-04-28T14:52:54.009Z,3.30
2018-04-28T14:55:27.543Z,3.37
2018-04-28T14:58:00.305Z,3.60
2018-04-28T15:00:33.398Z,3.08
2018-04-28T15:03:06.430Z,2.70
2018-04-28T15:05:39.828Z,3.28
2018-04-28T15:08:13.026Z,3.67
2018-04-28T15:10:46.212Z,3.20
2018-04-28T15:13:19.460Z,3.03
2018-04-28T15:15:52.560Z,3.13
2018-04-28T15:18:25.663Z,7.70
2018-04-28T15:20:59.395Z,4.25
2018-04-28T15:23:32.083Z,3.97
2018-04-28T15:26:05.459Z,3.50
2018-04-28T15:28:39.316Z,3.40
2018-04-28T15:32:53.314Z,2.80
2018-04-28T15:35:25.964Z,3.00
2018-04-28T15:37:59.238Z,3.03
2018-04-28T15:40:32.518Z,3.40
2018-04-28T15:43:05.879Z,3.20
2018-04-28T15:45:39.207Z,3.00
2018-04-28T15:48:12.387Z,2.83
2018-04-28T15:50:45.790Z,3.17
2018-04-28T15:53:19.672Z,2.90
2018-04-28T15:55:52.664Z,3.12
2018-04-28T15:58:26.153Z,2.65
2018-04-28T16:00:58.924Z,2.90
2018-04-28T16:03:32.071Z,3.00
2018-04-28T16:06:05.519Z,2.97
2018-04-28T16:08:39.643Z,3.17
2018-04-28T16:11:12.625Z,3.47
2018-04-28T16:13:45.661Z,2.90
2018-04-28T16:16:18.843Z,3.10
2018-04-28T16:18:51.402Z,2.85
2018-04-28T16:21:24.578Z,2.80
2018-04-28T16:23:57.429Z,3.40
2018-04-28T16:26:30.602Z,3.80
2018-04-28T16:29:04.805Z,3.70
2018-04-28T16:31:37.439Z,3.23
2018-04-28T16:34:13.066Z,2.80
2018-04-28T16:36:46.210Z,2.90
2018-04-28T16:39:19.650Z,3.40
2018-04-28T16:41:52.586Z,2.85
2018-04-28T16:44:25.990Z,2.80
2018-04-28T16:46:58.584Z,2.50
2018-04-28T16:49:31.407Z,3.00
2018-04-28T16:52:04.720Z,2.60
2018-04-28T16:54:37.445Z,2.70
2018-04-28T16:57:10.398Z,2.57
2018-04-28T16:59:43.424Z,2.67
2018-04-28T17:02:18.403Z,2.65
2018-04-28T17:04:51.228Z,2.83
2018-04-28T17:07:23.409Z,2.70
2018-04-28T17:09:56.323Z,2.50
2018-04-28T17:12:29.406Z,2.72
2018-04-28T17:15:02.072Z,2.67
2018-04-28T17:17:45.535Z,2.60
2018-04-28T17:20:18.411Z,2.10
2018-04-28T17:22:50.658Z,2.20
2018-04-28T17:25:24.115Z,2.22
2018-04-28T17:27:57.507Z,2.70
2018-04-28T17:30:30.097Z,2.40
2018-04-28T17:33:03.237Z,2.60
2018-04-28T17:35:36.494Z,2.42
2018-04-28T17:38:09.229Z,2.10
2018-04-28T17:40:41.411Z,2.20
2018-04-28T17:43:14.326Z,2.30
2018-04-28T17:45:46.985Z,2.60
2018-04-28T17:48:20.523Z,2.30
2018-04-28T17:50:53.427Z,2.30
2018-04-28T17:53:26.321Z,2.47
2018-04-28T17:55:59.430Z,2.60
2018-04-28T17:58:32.537Z,2.23
2018-04-28T18:01:05.525Z,2.43
2018-04-28T18:03:38.326Z,2.42
2018-04-28T18:06:11.487Z,2.60
2018-04-28T18:08:45.249Z,2.53
2018-04-28T18:11:17.434Z,2.65
2018-04-28T18:13:50.609Z,2.60
2018-04-28T18:16:25.235Z,2.58
2018-04-28T18:18:57.970Z,3.40
2018-04-28T18:21:31.090Z,2.60
2018-04-28T18:24:03.790Z,2.60
2018-04-28T18:26:37.186Z,2.85
2018-04-28T18:29:10.068Z,2.90
2018-04-28T18:31:43.177Z,2.67
2018-04-28T18:34:16.234Z,2.30
2018-04-28T18:36:49.162Z,2.70
2018-04-28T18:39:22.336Z,3.00
2018-04-28T18:41:54.822Z,2.63
2018-04-28T18:44:28.654Z,3.00
2018-04-28T18:49:01.164Z,2.50
2018-04-28T18:51:33.965Z,2.53
2018-04-28T18:54:07.080Z,2.50
2018-04-28T18:56:40.529Z,2.40
2018-04-28T18:59:13.877Z,2.70
2018-04-28T19:01:46.342Z,3.00
2018-04-28T19:04:19.443Z,2.87
2018-04-28T19:06:52.332Z,2.63
2018-04-28T19:09:25.474Z,2.28
2018-04-28T19:11:58.276Z,3.30
2018-04-28T19:14:31.640Z,3.77
2018-04-28T19:17:05.600Z,4.60
2018-04-28T19:19:39.606Z,4.85
2018-04-28T19:22:12.909Z,4.20
2018-04-28T19:24:45.555Z,3.40
2018-04-28T19:27:18.501Z,3.00
2018-04-28T19:29:51.549Z,2.65
2018-04-28T19:32:24.431Z,2.70
2018-04-28T19:34:57.255Z,2.83
2018-04-28T19:37:29.334Z,2.80
2018-04-28T19:40:01.887Z,2.60
2018-04-28T19:42:34.436Z,2.90
2018-04-28T19:45:07.491Z,2.40
2018-04-28T19:48:49.147Z,2.50
2018-04-28T19:51:21.570Z,3.10
2018-04-28T19:53:54.473Z,2.83
2018-04-28T19:56:27.593Z,2.83
2018-04-28T19:59:00.510Z,2.50
2018-04-28T20:01:33.564Z,2.40
2018-04-28T20:04:06.562Z,2.90
2018-04-28T20:06:40.739Z,2.67
2018-04-28T20:09:56.607Z,2.80
2018-04-28T20:12:28.731Z,2.60
2018-04-28T20:15:00.974Z,2.50
2018-04-28T20:17:33.434Z,2.63
2018-04-28T20:20:06.356Z,2.17
2018-04-28T20:22:49.864Z,2.47
2018-04-28T20:25:25.997Z,2.37
2018-04-28T20:27:58.355Z,2.20
2018-04-28T20:30:31.503Z,2.65
2018-04-28T20:33:05.150Z,2.50
2018-04-28T20:35:37.714Z,2.10
2018-04-28T20:38:10.984Z,2.20
2018-04-28T20:40:44.559Z,2.53
2018-04-28T20:43:17.437Z,2.43
2018-04-28T20:45:50.124Z,2.10
2018-04-28T20:48:23.287Z,2.60
2018-04-28T20:50:56.349Z,2.50
2018-04-28T20:53:29.489Z,2.67
2018-04-28T20:56:02.632Z,2.50
2018-04-28T20:58:36.479Z,2.67
2018-04-28T21:01:09.822Z,2.50
2018-04-28T21:03:42.464Z,2.20
2018-04-28T21:06:16.057Z,2.33
2018-04-28T21:08:49.056Z,2.20
2018-04-28T21:11:21.906Z,2.30
2018-04-28T21:13:55.097Z,2.20
2018-04-28T21:16:29.828Z,2.28
2018-04-28T21:19:03.812Z,2.40
2018-04-28T21:21:37.493Z,2.30
2018-04-28T21:24:10.784Z,2.30
2018-04-28T21:26:43.473Z,2.10
2018-04-28T21:29:16.454Z,2.03
2018-04-28T21:31:49.615Z,2.13
2018-04-28T21:34:22.459Z,2.20
2018-04-28T21:36:55.206Z,2.08
2018-04-28T21:39:28.011Z,2.23
2018-04-28T21:42:01.625Z,1.98
2018-04-28T21:44:35.253Z,1.40
2018-04-28T21:47:07.491Z,1.67
2018-04-28T21:49:40.653Z,1.63
2018-04-28T21:52:13.516Z,1.50
2018-04-28T21:54:46.813Z,1.50
2018-04-28T21:57:20.366Z,1.60
2018-04-28T21:59:54.851Z,1.40
2018-04-28T22:02:29.377Z,1.33
2018-04-28T22:07:34.314Z,1.47
2018-04-28T22:10:07.506Z,1.30
2018-04-28T22:12:40.556Z,1.50
2018-04-28T22:15:13.712Z,1.30
2018-04-28T22:17:47.674Z,1.30
2018-04-28T22:20:20.628Z,1.50
2018-04-28T22:22:53.819Z,1.60
2018-04-28T22:25:27.461Z,1.20
2018-04-28T22:28:00.465Z,1.70
2018-04-28T22:30:34.104Z,1.60
2018-04-28T22:33:07.238Z,1.67
2018-04-28T22:35:39.959Z,1.77
2018-04-28T22:38:15.532Z,1.40
2018-04-28T22:40:48.474Z,1.50
2018-04-28T22:43:21.482Z,1.50
2018-04-28T22:45:55.012Z,1.50
2018-04-28T22:48:28.125Z,2.00
2018-04-28T22:51:01.478Z,1.90
2018-04-28T22:53:34.589Z,1.85
2018-04-28T22:56:08.379Z,1.70
2018-04-28T22:58:41.594Z,1.80
2018-04-28T23:01:14.777Z,1.77
2018-04-28T23:03:47.776Z,1.50
2018-04-28T23:06:21.780Z,1.80
2018-04-28T23:09:03.429Z,1.90
2018-04-28T23:13:09.738Z,1.67
2018-04-28T23:15:43.018Z,1.60
2018-04-28T23:18:16.382Z,1.70
2018-04-28T23:20:49.477Z,2.03
2018-04-28T23:23:22.681Z,1.80
2018-04-28T23:25:55.736Z,1.70
2018-04-28T23:28:29.692Z,1.50
2018-04-28T23:31:02.387Z,1.40
2018-04-28T23:33:34.513Z,1.50
2018-04-28T23:36:07.710Z,1.37
2018-04-28T23:38:40.637Z,1.45
2018-04-28T23:41:13.499Z,1.48
2018-04-28T23:43:46.476Z,2.10
2018-04-28T23:46:20.541Z,1.50
2018-04-28T23:48:53.496Z,1.70
2018-04-28T23:51:26.608Z,1.70
2018-04-28T23:53:59.299Z,1.80
2018-04-28T23:56:32.786Z,1.90
2018-04-28T23:59:05.535Z,2.10
